In Rescue
 
Open Full Screen Window  High Contrast Mode
August 09, 2020 6:10 PM CDT
Weather Information
Wind Direction
  ---
Wind Speed
  00 kt (0 mph)
Wind Gust
  00 kt (0 mph)
Altimeter
29.81 in
Visibility
10 SM
Temperature
19° C
66° F
Dewpoint
19° C
66° F
Humidity
100%
1hr Rain Fall
00.00 in.
24hr Rain Fall
00.03 in.
Sky Condition
Scattered @ 500 ft
VFR

METAR KCKN 092310Z AUTO 00000KT 10SM SCT005 19/19 A2981 RMK AO2

FAA Disclaimer: The data displayed is for advisory purposes only and is not to be used for flight planning or operations.